Time;durP1;ratioP1;P1;durP2;ratioP2;P2;SDS_P1;SDS_P2;PMS_P1;PMS_P2;Temp;Humidity;BMP_temperature;BMP_pressure;BME280_temperature;BME280_humidity;BME280_pressure;Samples;Min_cycle;Max_cycle;Signal;HPM_P1;HPM_P2
2021/03/24 00:01:16;;;;;;;9.20;4.07;;;8.70;83.50;;;;;;4912386;28;20039;-76
2021/03/24 00:03:44;;;;;;;5.97;3.70;;;8.60;83.30;;;;;;4925115;29;20845;-75
2021/03/24 00:06:12;;;;;;;7.20;3.95;;;8.70;83.10;;;;;;4929822;29;20051;-75
2021/03/24 00:08:40;;;;;;;12.15;4.55;;;8.60;83.10;;;;;;4924117;29;20051;-75
2021/03/24 00:11:08;;;;;;;7.13;4.32;;;8.40;83.30;;;;;;4941097;28;20071;-75
2021/03/24 00:13:35;;;;;;;10.77;4.57;;;8.30;83.50;;;;;;4926421;29;20047;-75
2021/03/24 00:16:05;;;;;;;5.80;3.92;;;8.10;84.50;;;;;;4926900;29;20051;-75
2021/03/24 00:18:33;;;;;;;7.85;4.43;;;8.00;84.80;;;;;;4909230;28;20058;-76
2021/03/24 00:21:01;;;;;;;6.90;4.40;;;8.20;84.90;;;;;;4926265;29;20054;-75
2021/03/24 00:23:28;;;;;;;8.45;3.90;;;8.40;84.50;;;;;;4921995;28;20047;-75
2021/03/24 00:25:56;;;;;;;9.05;4.80;;;8.40;84.40;;;;;;4925349;28;20053;-75
2021/03/24 00:28:23;;;;;;;7.97;4.70;;;8.20;85.00;;;;;;4910776;29;20705;-75
2021/03/24 00:30:51;;;;;;;6.05;3.67;;;8.30;85.30;;;;;;4942717;28;20110;-75
2021/03/24 00:33:22;;;;;;;6.55;3.47;;;8.10;85.80;;;;;;4925435;29;20130;-75
2021/03/24 00:35:50;;;;;;;7.10;3.30;;;8.10;86.10;;;;;;4942918;29;20058;-75
2021/03/24 00:38:20;;;;;;;8.13;4.28;;;8.30;86.10;;;;;;4908899;29;20130;-75
2021/03/24 00:40:49;;;;;;;5.82;3.40;;;8.40;85.70;;;;;;4925061;28;20512;-75
2021/03/24 00:43:16;;;;;;;6.13;3.30;;;8.20;86.10;;;;;;4907232;29;20071;-75
2021/03/24 00:45:44;;;;;;;7.85;3.65;;;8.10;86.40;;;;;;4907603;29;20047;-75
2021/03/24 00:48:17;;;;;;;6.85;3.53;;;8.20;86.30;;;;;;4924030;29;20031;-75
2021/03/24 00:50:46;;;;;;;6.28;3.90;;;8.10;86.70;;;;;;4921938;29;20050;-76
2021/03/24 00:53:15;;;;;;;7.30;3.50;;;7.90;87.30;;;;;;4923401;29;20044;-75
2021/03/24 00:55:42;;;;;;;7.43;3.35;;;7.90;87.50;;;;;;4905226;29;20291;-75
2021/03/24 00:58:09;;;;;;;6.50;3.80;;;8.10;87.10;;;;;;4924771;28;20074;-75
2021/03/24 01:00:40;;;;;;;5.95;3.58;;;8.20;86.70;;;;;;4924734;28;20390;-75
2021/03/24 01:03:08;;;;;;;5.38;3.58;;;8.30;86.30;;;;;;4942624;28;20134;-75
2021/03/24 01:05:37;;;;;;;4.95;3.22;;;8.30;85.80;;;;;;4908833;29;20047;-75
2021/03/24 01:08:08;;;;;;;5.10;3.30;;;8.20;85.70;;;;;;4943041;28;20042;-75
2021/03/24 01:10:38;;;;;;;9.25;3.60;;;8.20;85.60;;;;;;4910088;29;20055;-75
2021/03/24 01:13:06;;;;;;;5.68;3.45;;;8.10;85.70;;;;;;4941592;28;20151;-75
2021/03/24 01:15:35;;;;;;;5.40;3.42;;;8.10;85.30;;;;;;4925576;29;20099;-75
2021/03/24 01:18:03;;;;;;;5.45;3.08;;;8.10;85.20;;;;;;4924952;29;20047;-75
2021/03/24 01:20:33;;;;;;;5.78;3.28;;;8.00;84.60;;;;;;4946190;28;20046;-76
2021/03/24 01:23:00;;;;;;;5.85;3.08;;;7.90;84.70;;;;;;4928238;29;20055;-76
2021/03/24 01:25:28;;;;;;;6.20;3.00;;;8.00;85.00;;;;;;4946824;28;20046;-76
2021/03/24 01:27:58;;;;;;;5.53;3.03;;;8.00;85.00;;;;;;4944516;28;20074;-77
2021/03/24 01:30:28;;;;;;;6.85;3.05;;;8.00;84.10;;;;;;4929166;28;20519;-78
2021/03/24 01:32:55;;;;;;;5.90;3.20;;;7.90;83.40;;;;;;4929986;29;20607;-78
2021/03/24 01:35:23;;;;;;;5.95;3.35;;;7.80;83.00;;;;;;4942282;28;20059;-79
2021/03/24 01:37:55;;;;;;;6.72;3.80;;;7.70;83.30;;;;;;4929932;29;20457;-82
2021/03/24 01:40:25;;;;;;;6.63;3.05;;;7.80;82.90;;;;;;4913267;29;20047;-80
2021/03/24 01:42:57;;;;;;;6.25;3.20;;;7.80;82.90;;;;;;4913620;29;20091;-78
2021/03/24 01:45:54;;;;;;;7.35;3.40;;;7.60;82.90;;;;;;4907045;29;20051;-78
2021/03/24 01:48:21;;;;;;;5.70;3.30;;;7.40;83.50;;;;;;4927426;29;20071;-78
2021/03/24 01:50:49;;;;;;;6.50;3.53;;;7.40;83.80;;;;;;4944323;28;20565;-78
2021/03/24 01:53:18;;;;;;;6.32;3.20;;;7.50;83.50;;;;;;4927925;29;20044;-79
2021/03/24 01:55:46;;;;;;;5.85;2.75;;;7.50;83.50;;;;;;4912802;29;20071;-78
2021/03/24 01:58:15;;;;;;;5.72;3.10;;;7.20;84.20;;;;;;4914611;29;20105;-79
2021/03/24 02:00:45;;;;;;;4.35;2.97;;;7.10;84.70;;;;;;4946453;28;20053;-79
2021/03/24 02:03:13;;;;;;;7.07;2.90;;;7.10;84.60;;;;;;4947276;28;20149;-79
2021/03/24 02:05:43;;;;;;;7.20;3.53;;;7.10;85.20;;;;;;4928220;28;20070;-78
2021/03/24 02:08:17;;;;;;;8.52;3.63;;;7.10;85.40;;;;;;4945752;28;20043;-78
2021/03/24 02:10:48;;;;;;;5.60;3.22;;;7.10;85.40;;;;;;4925896;29;20051;-79
2021/03/24 02:13:22;;;;;;;7.07;2.97;;;7.30;85.10;;;;;;4946145;28;20051;-79
2021/03/24 02:15:53;;;;;;;6.32;3.10;;;7.20;84.50;;;;;;4909289;29;20039;-78
2021/03/24 02:18:23;;;;;;;5.82;3.25;;;7.20;84.70;;;;;;4928687;29;20071;-78
2021/03/24 02:20:54;;;;;;;5.70;2.78;;;7.10;84.40;;;;;;4945345;28;20047;-77
2021/03/24 02:23:50;;;;;;;6.15;3.22;;;7.00;84.00;;;;;;4914802;29;20051;-77
2021/03/24 02:26:23;;;;;;;3.70;2.70;;;7.00;84.20;;;;;;4944143;28;20052;-77
2021/03/24 02:28:54;;;;;;;6.95;3.55;;;7.10;83.80;;;;;;4910926;29;20402;-77
2021/03/24 02:31:24;;;;;;;7.47;3.20;;;7.30;83.20;;;;;;4928063;29;20086;-77
2021/03/24 02:33:54;;;;;;;5.38;2.63;;;7.30;83.00;;;;;;4926207;29;20070;-77
2021/03/24 02:36:23;;;;;;;6.07;3.50;;;7.30;83.00;;;;;;4926679;29;20410;-77
2021/03/24 02:38:55;;;;;;;7.22;2.80;;;7.20;82.80;;;;;;4927890;28;20053;-76
2021/03/24 02:41:24;;;;;;;5.13;3.00;;;7.00;83.40;;;;;;4911795;28;20575;-77
2021/03/24 02:43:52;;;;;;;5.95;3.03;;;7.10;83.10;;;;;;4945414;28;20036;-76
2021/03/24 02:46:20;;;;;;;5.45;3.20;;;6.70;83.70;;;;;;4929693;28;20050;-76
2021/03/24 02:48:48;;;;;;;7.75;3.38;;;6.70;83.90;;;;;;4944442;28;20121;-76
2021/03/24 02:51:20;;;;;;;5.97;3.30;;;6.70;83.80;;;;;;4943196;28;20051;-76
2021/03/24 02:54:05;;;;;;;6.13;3.20;;;6.90;83.50;;;;;;4930390;28;20066;-76
2021/03/24 02:56:32;;;;;;;6.07;2.95;;;6.90;83.20;;;;;;4912196;29;20515;-77
2021/03/24 02:59:00;;;;;;;6.40;3.03;;;6.90;83.20;;;;;;4928754;28;20046;-77
2021/03/24 03:01:39;;;;;;;3.40;2.63;;;6.80;83.50;;;;;;4928219;29;20074;-78
2021/03/24 03:04:12;;;;;;;3.33;2.42;;;6.70;84.10;;;;;;4923853;29;20119;-76
2021/03/24 03:06:40;;;;;;;5.38;2.60;;;6.70;85.00;;;;;;4937530;28;20044;-77
2021/03/24 03:09:18;;;;;;;3.20;2.20;;;6.80;85.50;;;;;;4904135;29;20589;-77
2021/03/24 03:11:52;;;;;;;6.82;2.40;;;6.60;86.30;;;;;;4922107;29;20091;-77
2021/03/24 03:14:27;;;;;;;5.72;2.42;;;6.60;86.90;;;;;;4923545;29;20553;-78
2021/03/24 03:17:01;;;;;;;5.30;2.10;;;6.50;87.30;;;;;;4921902;29;20207;-78
2021/03/24 03:19:32;;;;;;;3.10;1.70;;;6.50;87.40;;;;;;4924806;29;20406;-80
2021/03/24 03:22:04;;;;;;;4.75;2.17;;;6.30;87.90;;;;;;4925113;29;20394;-80
2021/03/24 03:24:37;;;;;;;3.72;1.90;;;6.40;88.00;;;;;;4924233;29;20093;-80
2021/03/24 03:27:08;;;;;;;2.70;1.92;;;6.20;88.40;;;;;;4923614;29;20405;-80
2021/03/24 03:29:37;;;;;;;3.22;1.88;;;6.10;88.80;;;;;;4924759;29;20048;-79
2021/03/24 03:32:06;;;;;;;2.80;1.85;;;6.20;88.50;;;;;;4925029;29;20039;-79
2021/03/24 03:34:36;;;;;;;4.10;2.38;;;6.30;88.30;;;;;;4926066;29;20036;-79
2021/03/24 03:37:05;;;;;;;3.67;2.30;;;6.40;87.20;;;;;;4922524;29;20412;-79
2021/03/24 03:39:33;;;;;;;4.38;2.70;;;6.40;86.40;;;;;;4907454;29;20044;-79
2021/03/24 03:42:03;;;;;;;5.50;2.60;;;6.40;86.00;;;;;;4935100;28;20223;-79
2021/03/24 03:44:32;;;;;;;4.45;2.58;;;6.40;85.50;;;;;;4924771;29;20110;-78
2021/03/24 03:47:04;;;;;;;5.00;2.53;;;6.50;85.20;;;;;;4906631;29;20043;-77
2021/03/24 03:49:32;;;;;;;5.47;2.30;;;6.40;84.90;;;;;;4921391;29;20142;-77
2021/03/24 03:52:12;;;;;;;3.72;2.15;;;6.40;84.60;;;;;;4922095;29;20039;-77
2021/03/24 03:55:02;;;;;;;4.18;2.10;;;6.20;85.60;;;;;;4928369;29;20046;-77
2021/03/24 03:57:35;;;;;;;4.43;2.17;;;6.30;86.10;;;;;;4904125;29;20148;-77
2021/03/24 04:00:13;;;;;;;4.25;2.17;;;6.30;86.40;;;;;;4925063;29;20083;-77
2021/03/24 04:02:47;;;;;;;3.88;1.90;;;6.30;86.30;;;;;;4925240;29;20048;-77
2021/03/24 04:05:21;;;;;;;2.50;1.98;;;6.30;86.60;;;;;;4920885;29;20095;-78
2021/03/24 04:07:56;;;;;;;6.30;2.38;;;6.30;86.80;;;;;;4923186;29;20109;-77
2021/03/24 04:10:26;;;;;;;5.45;2.42;;;6.30;86.80;;;;;;4910212;29;20050;-77
2021/03/24 04:12:55;;;;;;;6.80;2.22;;;6.20;86.10;;;;;;4925523;29;20521;-78
2021/03/24 04:15:25;;;;;;;3.50;2.50;;;6.20;85.80;;;;;;4925939;28;20057;-78
2021/03/24 04:18:09;;;;;;;5.70;2.60;;;6.20;85.50;;;;;;4927377;29;20050;-78
2021/03/24 04:20:39;;;;;;;4.93;2.70;;;6.20;84.90;;;;;;4925039;28;20043;-78
2021/03/24 04:23:12;;;;;;;4.55;2.50;;;6.20;85.00;;;;;;4909586;28;20494;-77
2021/03/24 04:25:44;;;;;;;4.47;2.53;;;6.20;84.90;;;;;;4941087;28;20043;-77
2021/03/24 04:28:15;;;;;;;3.97;2.22;;;6.20;85.00;;;;;;4943138;28;20042;-77
2021/03/24 04:30:47;;;;;;;4.32;2.40;;;6.20;85.20;;;;;;4941519;28;20134;-77
2021/03/24 04:33:15;;;;;;;3.83;1.88;;;6.10;85.50;;;;;;4927138;29;20046;-79
2021/03/24 04:35:44;;;;;;;3.80;2.30;;;6.00;86.10;;;;;;4910002;29;20043;-78
2021/03/24 04:38:23;;;;;;;4.18;2.20;;;6.10;86.40;;;;;;4943764;28;20043;-79
2021/03/24 04:40:52;;;;;;;3.55;1.90;;;6.20;86.40;;;;;;4923968;29;20054;-79
2021/03/24 04:43:25;;;;;;;4.25;2.22;;;6.20;86.70;;;;;;4942449;28;20043;-80
2021/03/24 04:45:56;;;;;;;3.75;1.98;;;6.10;87.00;;;;;;4943028;28;20224;-78
2021/03/24 04:48:30;;;;;;;4.47;2.15;;;6.10;87.30;;;;;;4942341;28;20146;-78
2021/03/24 04:51:01;;;;;;;4.30;2.20;;;6.10;87.60;;;;;;4908321;29;20274;-77
2021/03/24 04:53:34;;;;;;;5.18;2.42;;;6.00;87.60;;;;;;4909345;28;20044;-78
2021/03/24 04:56:02;;;;;;;2.60;1.80;;;5.80;88.10;;;;;;4925063;29;20047;-78
2021/03/24 04:58:33;;;;;;;8.48;2.45;;;5.90;88.30;;;;;;4929032;28;20032;-78
2021/03/24 05:01:07;;;;;;;5.38;2.30;;;5.90;88.20;;;;;;4914607;28;20058;-78
2021/03/24 05:03:38;;;;;;;4.20;2.20;;;5.80;88.30;;;;;;4928086;29;20124;-78
2021/03/24 05:06:15;;;;;;;3.47;2.08;;;5.90;88.20;;;;;;4929013;29;20051;-78
2021/03/24 05:08:44;;;;;;;3.58;2.20;;;5.90;87.90;;;;;;4928581;29;20050;-77
2021/03/24 05:11:19;;;;;;;3.17;1.80;;;5.90;88.30;;;;;;4929229;29;20094;-78
2021/03/24 05:13:54;;;;;;;4.82;2.10;;;5.90;88.20;;;;;;4913132;29;20040;-78
2021/03/24 05:16:27;;;;;;;6.43;2.67;;;6.00;87.80;;;;;;4946794;28;20054;-78
2021/03/24 05:18:57;;;;;;;6.93;2.30;;;5.90;88.00;;;;;;4928936;29;20650;-78
2021/03/24 05:21:54;;;;;;;3.22;2.30;;;5.90;88.30;;;;;;4930031;29;20123;-77
2021/03/24 05:24:26;;;;;;;3.40;2.03;;;5.80;88.00;;;;;;4944108;28;20722;-77
2021/03/24 05:27:00;;;;;;;3.35;1.88;;;5.70;88.30;;;;;;4929112;28;20299;-78
2021/03/24 05:29:33;;;;;;;3.70;1.73;;;5.50;88.30;;;;;;4916163;29;20138;-78
2021/03/24 05:32:03;;;;;;;3.90;2.35;;;5.50;88.50;;;;;;4944727;28;20054;-80
2021/03/24 05:34:34;;;;;;;2.55;2.00;;;5.50;88.30;;;;;;4950276;28;20062;-80
2021/03/24 05:37:07;;;;;;;6.57;3.08;;;5.50;88.40;;;;;;4942489;28;20057;-79
2021/03/24 05:39:37;;;;;;;4.03;2.03;;;5.60;87.80;;;;;;4928323;29;20098;-79
2021/03/24 05:42:23;;;;;;;4.28;2.30;;;5.60;87.40;;;;;;4947085;28;20068;-78
2021/03/24 05:45:06;;;;;;;5.20;2.28;;;5.50;87.30;;;;;;4946903;28;20048;-78
2021/03/24 05:47:44;;;;;;;6.93;2.67;;;5.50;87.00;;;;;;4938991;28;20044;-78
2021/03/24 05:50:38;;;;;;;4.50;2.80;;;5.50;86.80;;;;;;4929321;29;20051;-78
2021/03/24 05:53:19;;;;;;;4.80;2.88;;;5.60;86.30;;;;;;4929302;29;20474;-78
2021/03/24 05:55:49;;;;;;;7.85;3.55;;;5.70;85.60;;;;;;4944747;28;20579;-78
2021/03/24 05:58:26;;;;;;;6.20;3.25;;;5.40;85.60;;;;;;4926629;28;20038;-78
2021/03/24 06:01:01;;;;;;;6.53;3.00;;;5.40;85.90;;;;;;4928345;29;20151;-78
2021/03/24 06:03:49;;;;;;;5.75;2.97;;;5.70;85.50;;;;;;4927406;28;20043;-78
2021/03/24 06:06:39;;;;;;;4.43;3.28;;;5.60;84.50;;;;;;4911406;29;20054;-78
2021/03/24 06:09:23;;;;;;;4.57;2.92;;;5.70;84.70;;;;;;4929576;29;20059;-78
2021/03/24 06:12:06;;;;;;;4.95;3.00;;;5.70;84.10;;;;;;4910284;29;20604;-79
2021/03/24 06:14:55;;;;;;;6.03;2.67;;;5.70;83.80;;;;;;4944645;28;20043;-78
2021/03/24 06:17:42;;;;;;;6.78;3.10;;;5.70;84.30;;;;;;4941601;28;20039;-78
2021/03/24 06:20:13;;;;;;;;;;;5.90;83.90;;;;;;4904856;29;20047;-78
2021/03/24 06:22:55;;;;;;;4.90;2.78;;;5.80;84.00;;;;;;4928539;29;19926;-78
2021/03/24 06:25:34;;;;;;;5.53;2.33;;;5.90;83.90;;;;;;4902598;29;20086;-78
2021/03/24 06:28:14;;;;;;;3.83;2.60;;;6.10;83.40;;;;;;4927774;29;20481;-78
2021/03/24 06:31:04;;;;;;;6.70;2.97;;;5.90;83.60;;;;;;4927609;29;20536;-78
2021/03/24 06:33:54;;;;;;;8.57;2.92;;;6.00;83.70;;;;;;4944176;28;20043;-78
2021/03/24 06:36:43;;;;;;;3.78;2.83;;;6.00;83.90;;;;;;4944329;28;20092;-78
2021/03/24 06:39:32;;;;;;;4.22;2.80;;;6.00;83.60;;;;;;4920177;28;20055;-78
2021/03/24 06:42:20;;;;;;;3.40;1.83;;;6.30;83.40;;;;;;4940382;28;20102;-79
2021/03/24 06:45:12;;;;;;;3.45;2.10;;;6.30;83.10;;;;;;4921779;29;20075;-78
2021/03/24 06:47:49;;;;;;;5.57;2.30;;;6.40;83.00;;;;;;4923378;29;20051;-78
2021/03/24 06:50:56;;;;;;;7.55;2.35;;;6.30;83.10;;;;;;4910016;29;20129;-78
2021/03/24 06:53:45;;;;;;;4.22;2.33;;;6.40;83.20;;;;;;4940738;28;20055;-78
2021/03/24 06:56:43;;;;;;;4.32;1.95;;;6.60;83.30;;;;;;4911814;29;20051;-78
2021/03/24 06:59:41;;;;;;;6.10;2.50;;;6.50;83.10;;;;;;4928258;29;20046;-79
2021/03/24 07:02:22;;;;;;;;;;;6.70;83.20;;;;;;4944551;28;20078;-78
2021/03/24 07:05:10;;;;;;;8.20;2.78;;;6.70;83.20;;;;;;4902546;29;19927;-78
2021/03/24 07:07:53;;;;;;;5.93;2.47;;;6.70;83.40;;;;;;4905389;29;20356;-78
2021/03/24 07:10:34;;;;;;;3.40;2.03;;;6.80;83.10;;;;;;4920827;29;20438;-78
2021/03/24 07:13:28;;;;;;;3.20;1.75;;;6.90;82.70;;;;;;4920286;29;20063;-78
2021/03/24 07:16:05;;;;;;;6.07;2.13;;;6.90;82.50;;;;;;4898023;29;20164;-78
2021/03/24 07:18:51;;;;;;;6.38;2.35;;;6.90;82.70;;;;;;4920720;29;20055;-77
2021/03/24 07:21:32;;;;;;;4.18;1.92;;;6.90;82.80;;;;;;4903330;29;20076;-77
2021/03/24 07:24:23;;;;;;;3.10;1.88;;;7.00;83.00;;;;;;4904617;29;20057;-77
2021/03/24 07:26:59;;;;;;;5.57;2.03;;;7.00;83.50;;;;;;4915520;29;20048;-78
2021/03/24 07:29:47;;;;;;;4.78;2.13;;;7.10;83.70;;;;;;4907787;29;20044;-77
2021/03/24 07:32:23;;;;;;;3.35;2.03;;;7.20;83.80;;;;;;4903895;29;20040;-77
2021/03/24 07:35:05;;;;;;;4.38;2.38;;;7.20;83.80;;;;;;4888510;29;20150;-78
2021/03/24 07:37:57;;;;;;;3.63;2.03;;;7.30;84.00;;;;;;4904045;29;20095;-78
2021/03/24 07:40:41;;;;;;;3.67;1.80;;;7.60;83.40;;;;;;4900671;29;20044;-78
2021/03/24 07:43:23;;;;;;;5.68;1.98;;;7.80;83.10;;;;;;4903422;29;20099;-80
2021/03/24 07:46:01;;;;;;;2.65;1.92;;;7.80;82.90;;;;;;4922512;29;20080;-82
2021/03/24 07:48:44;;;;;;;3.10;1.63;;;8.00;82.80;;;;;;4905433;29;20083;-78
2021/03/24 07:51:18;;;;;;;2.58;1.65;;;8.10;82.30;;;;;;4904261;29;20164;-78
2021/03/24 07:53:54;;;;;;;2.78;1.88;;;8.30;81.90;;;;;;4909134;29;20048;-78
2021/03/24 07:56:32;;;;;;;4.28;1.83;;;8.30;81.50;;;;;;4903025;29;20051;-76
2021/03/24 07:59:15;;;;;;;3.53;1.50;;;8.40;81.30;;;;;;4889344;29;20514;-76
2021/03/24 08:01:59;;;;;;;3.38;1.70;;;8.40;80.70;;;;;;4916748;29;20579;-76
2021/03/24 08:04:51;;;;;;;3.97;1.73;;;8.40;80.20;;;;;;4937618;29;20055;-76
2021/03/24 08:07:36;;;;;;;2.70;1.80;;;8.60;80.00;;;;;;4906598;28;20047;-76
2021/03/24 08:10:22;;;;;;;4.63;2.30;;;8.70;79.90;;;;;;4924619;28;20043;-77
2021/03/24 08:13:05;;;;;;;2.33;1.77;;;8.80;79.30;;;;;;4941905;28;20043;-77
2021/03/24 08:15:54;;;;;;;4.07;1.80;;;8.70;79.00;;;;;;4941864;28;20118;-77
2021/03/24 08:18:35;;;;;;;3.38;1.92;;;8.80;78.90;;;;;;4926704;28;20274;-76
2021/03/24 08:21:08;;;;;;;3.65;1.70;;;8.80;78.70;;;;;;4917960;28;20138;-76
2021/03/24 08:23:59;;;;;;;4.65;2.03;;;8.90;78.80;;;;;;4910488;28;20043;-77
2021/03/24 08:26:29;;;;;;;7.63;2.47;;;8.90;78.30;;;;;;4924699;28;20046;-77
2021/03/24 08:29:06;;;;;;;2.80;2.03;;;9.00;77.90;;;;;;4923112;28;20536;-76
2021/03/24 08:31:51;;;;;;;3.47;2.00;;;9.20;78.00;;;;;;4924281;28;20067;-76
2021/03/24 08:34:41;;;;;;;4.32;1.70;;;9.30;77.40;;;;;;4938208;28;20118;-77
2021/03/24 08:37:34;;;;;;;6.10;2.42;;;9.30;77.80;;;;;;4942112;28;20067;-76
2021/03/24 08:40:27;;;;;;;3.63;1.77;;;9.40;77.20;;;;;;4924326;28;20047;-76
2021/03/24 08:43:20;;;;;;;3.70;1.70;;;9.40;76.50;;;;;;4922859;28;20341;-79
2021/03/24 08:45:52;;;;;;;4.95;1.98;;;9.50;76.20;;;;;;4925226;29;20043;-76
2021/03/24 08:48:32;;;;;;;4.35;1.90;;;9.70;76.60;;;;;;4943368;28;20556;-77
2021/03/24 08:51:10;;;;;;;3.40;2.00;;;9.80;76.30;;;;;;4926342;29;20047;-77
2021/03/24 08:53:42;;;;;;;;;;;9.90;75.80;;;;;;4924487;29;20072;-77
2021/03/24 08:56:19;;;;;;;2.67;1.40;;;9.90;75.70;;;;;;4926074;28;19926;-76
2021/03/24 08:58:59;;;;;;;3.78;1.50;;;9.90;75.30;;;;;;4933777;28;20054;-77
2021/03/24 09:01:48;;;;;;;3.83;1.70;;;9.90;75.20;;;;;;4926396;28;20405;-77
2021/03/24 09:04:37;;;;;;;3.60;1.65;;;9.90;75.40;;;;;;4904059;28;20539;-77
2021/03/24 09:07:18;;;;;;;1.95;1.38;;;10.10;75.30;;;;;;4937128;28;20078;-78
2021/03/24 09:10:07;;;;;;;2.35;1.45;;;10.20;75.30;;;;;;4925340;29;20089;-75
2021/03/24 09:12:40;;;;;;;3.08;1.60;;;10.20;75.70;;;;;;4936499;28;20039;-77
2021/03/24 09:15:15;;;;;;;4.53;1.80;;;10.30;76.70;;;;;;4940213;28;20040;-77
2021/03/24 09:18:02;;;;;;;4.43;1.77;;;10.50;76.70;;;;;;4917759;28;20393;-79
2021/03/24 09:20:56;;;;;;;4.03;1.85;;;10.60;76.20;;;;;;4923243;29;20149;-79
2021/03/24 09:23:45;;;;;;;3.75;2.10;;;10.70;77.00;;;;;;4911031;28;20050;-79
2021/03/24 09:26:51;;;;;;;5.68;2.40;;;10.80;77.00;;;;;;4939159;28;20047;-79
2021/03/24 09:29:33;;;;;;;3.22;2.08;;;10.80;77.80;;;;;;4909074;29;20160;-77
2021/03/24 09:32:19;;;;;;;3.47;2.10;;;11.10;77.70;;;;;;4924121;28;20445;-76
2021/03/24 09:35:02;;;;;;;4.47;2.47;;;11.10;78.10;;;;;;4940328;29;20126;-76
2021/03/24 09:37:34;;;;;;;2.97;2.03;;;11.10;79.70;;;;;;4924355;29;20054;-76
2021/03/24 09:40:07;;;;;;;3.90;2.30;;;11.20;79.50;;;;;;4924544;28;20042;-77
2021/03/24 09:42:37;;;;;;;5.57;2.65;;;11.30;80.50;;;;;;4926883;29;20375;-79
2021/03/24 09:45:17;;;;;;;2.30;1.70;;;11.40;81.10;;;;;;4911706;29;20125;-80
2021/03/24 09:47:50;;;;;;;4.90;2.38;;;11.50;81.70;;;;;;4944536;28;20039;-77
2021/03/24 09:50:27;;;;;;;4.70;2.70;;;11.70;81.20;;;;;;4930045;28;20050;-79
2021/03/24 09:52:59;;;;;;;5.88;2.80;;;11.80;82.20;;;;;;4923581;28;20071;-79
2021/03/24 09:55:32;;;;;;;7.13;2.78;;;11.90;82.40;;;;;;4944829;28;20059;-78
2021/03/24 09:58:15;;;;;;;5.85;2.83;;;11.90;82.70;;;;;;4943606;28;20050;-79
2021/03/24 10:00:56;;;;;;;5.07;2.50;;;12.00;84.40;;;;;;4929340;28;20401;-81
2021/03/24 10:03:33;;;;;;;3.05;2.30;;;12.20;83.90;;;;;;4937793;28;20055;-82
2021/03/24 10:06:04;;;;;;;4.53;3.05;;;12.40;83.00;;;;;;4941944;28;20498;-82
2021/03/24 10:08:36;;;;;;;3.70;2.67;;;12.60;83.40;;;;;;4932409;29;20051;-83
2021/03/24 10:11:08;;;;;;;6.53;3.10;;;12.80;82.50;;;;;;4912125;29;20059;-82
2021/03/24 10:13:45;;;;;;;5.15;2.90;;;12.90;82.20;;;;;;4932035;29;20043;-87
2021/03/24 10:16:18;;;;;;;7.13;3.03;;;12.90;83.00;;;;;;4927684;29;20048;-78
2021/03/24 10:18:54;;;;;;;6.32;2.90;;;13.00;83.40;;;;;;4944594;28;20070;-77
2021/03/24 10:21:25;;;;;;;6.18;2.63;;;13.00;84.00;;;;;;4927678;29;20524;-77
2021/03/24 10:23:56;;;;;;;7.75;3.00;;;13.10;84.00;;;;;;4911669;29;20471;-78
2021/03/24 10:26:30;;;;;;;8.70;3.15;;;13.20;83.90;;;;;;4927573;29;20110;-77
2021/03/24 10:29:00;;;;;;;5.32;2.72;;;13.30;84.10;;;;;;4944242;28;20584;-79
2021/03/24 10:31:36;;;;;;;5.38;2.83;;;13.40;83.90;;;;;;4943162;28;20577;-78
2021/03/24 10:34:13;;;;;;;5.82;3.13;;;13.50;82.90;;;;;;4912724;29;20090;-77
2021/03/24 10:36:49;;;;;;;6.30;2.80;;;13.60;82.30;;;;;;4944806;28;20055;-77
2021/03/24 10:39:22;;;;;;;6.60;2.88;;;13.70;81.70;;;;;;4921661;28;20051;-77
2021/03/24 10:41:56;;;;;;;5.93;2.97;;;13.80;81.10;;;;;;4930685;29;20043;-78
2021/03/24 10:44:30;;;;;;;4.88;3.03;;;13.90;80.30;;;;;;4927078;29;20051;-77
2021/03/24 10:47:09;;;;;;;7.10;3.30;;;14.00;78.60;;;;;;4926192;28;20051;-77
2021/03/24 10:49:44;;;;;;;5.55;2.92;;;14.10;78.70;;;;;;4926797;28;20066;-77
2021/03/24 10:52:17;;;;;;;4.65;2.78;;;14.20;78.70;;;;;;4938186;28;20043;-77
2021/03/24 10:54:54;;;;;;;5.90;3.03;;;14.20;78.90;;;;;;4942961;28;20054;-76
2021/03/24 10:57:26;;;;;;;;;;;14.20;80.00;;;;;;4943037;28;20093;-77
2021/03/24 11:00:15;;;;;;;5.25;3.10;;;14.50;80.00;;;;;;4942995;28;19926;-77
2021/03/24 11:02:52;;;;;;;4.25;2.55;;;14.50;79.10;;;;;;4944246;28;20481;-76
2021/03/24 11:05:27;;;;;;;6.65;3.10;;;14.50;80.00;;;;;;4923729;28;20054;-81
2021/03/24 11:08:03;;;;;;;4.70;2.78;;;14.60;79.70;;;;;;4927188;29;20544;-76
2021/03/24 11:10:39;;;;;;;7.53;3.58;;;14.80;79.50;;;;;;4927887;29;20517;-77
2021/03/24 11:13:17;;;;;;;6.03;3.80;;;14.80;80.40;;;;;;4927479;28;20054;-76
2021/03/24 11:16:04;;;;;;;5.35;3.45;;;15.00;80.40;;;;;;4942779;28;20154;-77
2021/03/24 11:18:38;;;;;;;4.80;3.35;;;15.10;79.30;;;;;;4925035;29;20047;-75
2021/03/24 11:21:23;;;;;;;7.40;2.90;;;15.20;79.50;;;;;;4943595;28;20468;-78
2021/03/24 11:23:53;;;;;;;4.38;3.65;;;15.30;81.30;;;;;;4927223;29;20047;-78
2021/03/24 11:26:40;;;;;;;6.05;3.58;;;15.40;81.90;;;;;;4942858;28;20114;-79
2021/03/24 11:29:13;;;;;;;6.18;3.42;;;15.40;82.20;;;;;;4928217;28;20059;-77
2021/03/24 11:31:54;;;;;;;8.82;3.40;;;15.50;81.60;;;;;;4939147;28;20051;-76
2021/03/24 11:34:29;;;;;;;4.30;3.17;;;15.60;82.70;;;;;;4939274;28;20057;-76
2021/03/24 11:37:03;;;;;;;7.15;3.30;;;15.70;82.70;;;;;;4937423;28;20070;-76
2021/03/24 11:39:35;;;;;;;5.82;3.58;;;16.00;82.90;;;;;;4947620;28;20102;-76
2021/03/24 11:42:14;;;;;;;4.97;3.20;;;16.10;82.20;;;;;;4941442;28;20061;-76
2021/03/24 11:44:45;;;;;;;11.50;4.28;;;16.20;81.70;;;;;;4940898;28;20510;-77
2021/03/24 11:47:26;;;;;;;4.20;3.30;;;16.40;81.60;;;;;;4940710;28;20070;-78
2021/03/24 11:50:01;;;;;;;8.32;3.75;;;16.50;81.00;;;;;;4943435;28;20040;-76
2021/03/24 11:52:41;;;;;;;4.63;3.15;;;16.50;80.60;;;;;;4940732;28;20050;-77
2021/03/24 11:55:34;;;;;;;5.07;3.05;;;16.60;80.30;;;;;;4926711;29;20051;-76
2021/03/24 11:58:14;;;;;;;4.90;3.55;;;16.70;79.90;;;;;;4922487;28;20145;-76
2021/03/24 12:01:01;;;;;;;4.82;3.22;;;16.60;79.60;;;;;;4939228;28;20142;-76
2021/03/24 12:03:47;;;;;;;7.22;3.58;;;16.80;79.20;;;;;;4941502;28;20047;-75
2021/03/24 12:06:23;;;;;;;7.97;3.50;;;17.00;79.20;;;;;;4940999;28;20526;-78
2021/03/24 12:08:56;;;;;;;6.85;3.58;;;17.20;78.30;;;;;;4942138;28;20061;-76
2021/03/24 12:11:26;;;;;;;6.22;3.63;;;17.40;78.40;;;;;;4910919;29;20052;-76
2021/03/24 12:14:05;;;;;;;4.93;3.30;;;17.30;77.50;;;;;;4922393;29;20043;-76
2021/03/24 12:16:43;;;;;;;4.60;2.70;;;17.40;77.50;;;;;;4938800;28;20070;-76
2021/03/24 12:19:27;;;;;;;5.82;2.83;;;17.20;77.50;;;;;;4942005;28;20121;-76
2021/03/24 12:21:56;;;;;;;5.18;3.03;;;17.30;77.60;;;;;;4941113;28;20715;-76
2021/03/24 12:24:28;;;;;;;4.78;3.22;;;17.40;77.10;;;;;;4909147;28;20059;-76
2021/03/24 12:27:08;;;;;;;5.05;3.28;;;17.50;76.90;;;;;;4941546;28;20074;-80
2021/03/24 12:29:37;;;;;;;4.53;2.58;;;17.60;76.40;;;;;;4905860;29;20043;-79
2021/03/24 12:32:15;;;;;;;4.93;2.35;;;17.40;76.70;;;;;;4925318;28;20086;-79
2021/03/24 12:34:45;;;;;;;5.93;3.40;;;17.50;76.50;;;;;;4926735;28;20049;-80
2021/03/24 12:37:24;;;;;;;3.30;2.35;;;17.60;77.30;;;;;;4942757;28;20047;-79
2021/03/24 12:40:03;;;;;;;4.97;2.25;;;17.50;77.50;;;;;;4941392;28;20413;-79
2021/03/24 12:42:32;;;;;;;6.88;2.25;;;17.60;77.60;;;;;;4944471;28;20039;-78
2021/03/24 12:45:01;;;;;;;3.92;2.28;;;17.50;77.70;;;;;;4921481;29;20499;-78
2021/03/24 12:47:34;;;;;;;6.88;2.17;;;17.10;77.60;;;;;;4923900;29;20095;-80
2021/03/24 12:50:22;;;;;;;4.22;2.30;;;17.20;77.90;;;;;;4922833;29;20059;-78
2021/03/24 12:52:52;;;;;;;;;;;17.30;77.40;;;;;;4927147;29;20528;-78
2021/03/24 12:55:20;;;;;;;3.05;2.08;;;17.20;76.90;;;;;;4909716;29;20117;-79
2021/03/24 12:57:53;;;;;;;2.47;1.63;;;17.30;77.00;;;;;;4926179;29;20445;-79
2021/03/24 13:00:28;;;;;;;3.28;1.67;;;17.50;76.80;;;;;;4924969;28;20622;-79
2021/03/24 13:03:18;;;;;;;5.65;1.80;;;17.40;76.60;;;;;;4926327;28;20070;-79
2021/03/24 13:06:00;;;;;;;7.35;1.77;;;17.30;76.90;;;;;;4938264;28;20512;-78
2021/03/24 13:08:36;;;;;;;4.25;1.58;;;17.40;76.70;;;;;;4909744;28;20751;-78
2021/03/24 13:11:17;;;;;;;3.58;1.63;;;17.60;77.10;;;;;;4910094;28;20107;-78
2021/03/24 13:13:53;;;;;;;3.30;1.48;;;17.50;76.90;;;;;;4924159;28;20109;-78
2021/03/24 13:16:28;;;;;;;3.10;1.30;;;17.50;76.80;;;;;;4945563;28;20043;-79
2021/03/24 13:19:09;;;;;;;3.45;1.67;;;17.40;77.70;;;;;;4939722;28;20048;-77
2021/03/24 13:21:47;;;;;;;4.28;1.75;;;17.30;78.10;;;;;;4947067;28;20186;-78
2021/03/24 13:24:30;;;;;;;4.63;2.05;;;17.40;77.80;;;;;;4942986;28;20054;-78
2021/03/24 13:27:06;;;;;;;2.03;1.40;;;17.40;77.30;;;;;;4913701;29;20089;-79
2021/03/24 13:29:45;;;;;;;3.88;1.60;;;17.20;77.90;;;;;;4943162;28;20393;-80
2021/03/24 13:32:24;;;;;;;3.58;1.40;;;17.10;79.10;;;;;;4925613;29;20468;-78
2021/03/24 13:34:58;;;;;;;2.75;1.65;;;17.20;78.70;;;;;;4945456;28;20685;-82
2021/03/24 13:37:28;;;;;;;5.22;2.88;;;17.20;78.10;;;;;;4944465;28;20047;-81
2021/03/24 13:40:02;;;;;;;4.50;1.67;;;17.30;78.10;;;;;;4906634;28;20070;-81
2021/03/24 13:42:34;;;;;;;3.60;1.90;;;17.10;78.50;;;;;;4911026;28;20133;-80